BAW18B TXKF-EGLL
Flight info
| Callsign | BAW18B |
|---|---|
| Flight time | 6h 27m |
| Altitude | 35000 |
| Route | SOMRR1 BALOO DCT 36N060W 43N050W/M083F370 46N040W 48N030W 4930N02000W DCT SOMAX DCT ATSUR/N0477F370 DCT EVRIN DCT INFEC DCT JETZI DCT AMFUL DCT ORZEB/N0409F230 P2 SIRIC |
| Aircraft | B77W/H-SDE1E2E3FGHIJ2J3J4J5M1RWXY/LB1D1 |
Departure
| Time | 2026-04-22 07:42 |
|---|---|
| Airport | L.F. Wade International Airport (TXKF) |
Arrival
| Time | 2026-04-22 14:10 |
|---|---|
| Airport | London Heathrow Airport (EGLL) |
| Time | Latitude | Longitude | Altitude | Speed | Heading |
|---|---|---|---|---|---|
| 2026-04-22 07:28 | 32.36224 | -64.70276 | 33 ft | 0 kts | 247° |
| 2026-04-22 07:29 | 32.36228 | -64.70261 | 33 ft | 4 kts | 259° |
| 2026-04-22 07:29 | 32.36227 | -64.70230 | 33 ft | 4 kts | 284° |
| 2026-04-22 07:29 | 32.36225 | -64.70206 | 33 ft | 2 kts | 258° |
| 2026-04-22 07:30 | 32.36227 | -64.70192 | 33 ft | 4 kts | 213° |
| 2026-04-22 07:30 | 32.36248 | -64.70180 | 30 ft | 4 kts | 176° |
| 2026-04-22 07:30 | 32.36271 | -64.70191 | 32 ft | 4 kts | 153° |
| 2026-04-22 07:30 | 32.36281 | -64.70197 | 31 ft | 1 kts | 158° |
| 2026-04-22 07:31 | 32.36282 | -64.70197 | 31 ft | 0 kts | 158° |
| 2026-04-22 07:35 | 32.36279 | -64.70193 | 31 ft | 1 kts | 140° |
| 2026-04-22 07:35 | 32.36274 | -64.70175 | 34 ft | 3 kts | 101° |
| 2026-04-22 07:36 | 32.36280 | -64.70127 | 33 ft | 9 kts | 74° |
| 2026-04-22 07:36 | 32.36316 | -64.70023 | 33 ft | 18 kts | 66° |
| 2026-04-22 07:36 | 32.36377 | -64.69856 | 33 ft | 24 kts | 67° |
| 2026-04-22 07:36 | 32.36440 | -64.69672 | 33 ft | 24 kts | 66° |
| 2026-04-22 07:37 | 32.36507 | -64.69490 | 32 ft | 24 kts | 68° |
| 2026-04-22 07:37 | 32.36571 | -64.69307 | 29 ft | 24 kts | 68° |
| 2026-04-22 07:37 | 32.36633 | -64.69123 | 30 ft | 24 kts | 68° |
| 2026-04-22 07:37 | 32.36700 | -64.68941 | 31 ft | 24 kts | 69° |
| 2026-04-22 07:38 | 32.36697 | -64.68746 | 28 ft | 24 kts | 101° |
| 2026-04-22 07:38 | 32.36666 | -64.68551 | 32 ft | 24 kts | 100° |
| 2026-04-22 07:38 | 32.36630 | -64.68358 | 32 ft | 24 kts | 102° |
| 2026-04-22 07:38 | 32.36597 | -64.68164 | 32 ft | 24 kts | 103° |
| 2026-04-22 07:39 | 32.36561 | -64.67971 | 32 ft | 24 kts | 99° |
| 2026-04-22 07:39 | 32.36532 | -64.67776 | 32 ft | 24 kts | 100° |
| 2026-04-22 07:39 | 32.36499 | -64.67582 | 31 ft | 24 kts | 102° |
| 2026-04-22 07:39 | 32.36463 | -64.67389 | 32 ft | 24 kts | 102° |
| 2026-04-22 07:40 | 32.36429 | -64.67195 | 32 ft | 24 kts | 101° |
| 2026-04-22 07:40 | 32.36397 | -64.67001 | 32 ft | 24 kts | 100° |
| 2026-04-22 07:40 | 32.36365 | -64.66806 | 32 ft | 24 kts | 102° |
| 2026-04-22 07:40 | 32.36331 | -64.66613 | 33 ft | 24 kts | 101° |
| 2026-04-22 07:41 | 32.36286 | -64.66423 | 33 ft | 24 kts | 110° |
| 2026-04-22 07:41 | 32.36169 | -64.66353 | 28 ft | 15 kts | 226° |
| 2026-04-22 07:41 | 32.36163 | -64.66488 | 28 ft | 25 kts | 277° |
| 2026-04-22 07:41 | 32.36243 | -64.66923 | 28 ft | 104 kts | 281° |
| 2026-04-22 07:42 | 32.36456 | -64.68171 | 119 ft | 201 kts | 283° |
| 2026-04-22 07:42 | 32.36760 | -64.69912 | 1295 ft | 213 kts | 285° |
| 2026-04-22 07:42 | 32.37038 | -64.71606 | 3032 ft | 214 kts | 285° |
| 2026-04-22 07:42 | 32.37346 | -64.73457 | 3214 ft | 247 kts | 284° |
| 2026-04-22 07:43 | 32.37703 | -64.75455 | 4168 ft | 242 kts | 285° |
| 2026-04-22 07:43 | 32.38068 | -64.77418 | 5109 ft | 248 kts | 289° |
| 2026-04-22 07:43 | 32.38937 | -64.79180 | 5792 ft | 253 kts | 319° |
| 2026-04-22 07:43 | 32.40469 | -64.80167 | 6743 ft | 254 kts | 347° |
| 2026-04-22 07:44 | 32.42237 | -64.80217 | 7607 ft | 257 kts | 8° |
| 2026-04-22 07:44 | 32.44023 | -64.79790 | 8352 ft | 267 kts | 9° |
| 2026-04-22 07:44 | 32.45855 | -64.79354 | 9277 ft | 270 kts | 8° |
| 2026-04-22 07:44 | 32.47703 | -64.78919 | 10250 ft | 272 kts | 8° |
| 2026-04-22 07:45 | 32.49591 | -64.78480 | 10910 ft | 285 kts | 8° |
| 2026-04-22 07:45 | 32.51632 | -64.78004 | 11125 ft | 312 kts | 10° |
| 2026-04-22 07:45 | 32.53692 | -64.76912 | 11294 ft | 345 kts | 34° |
| 2026-04-22 07:45 | 32.55421 | -64.74786 | 11588 ft | 369 kts | 46° |
| 2026-04-22 07:46 | 32.57072 | -64.72408 | 12341 ft | 378 kts | 46° |
| 2026-04-22 07:46 | 32.58769 | -64.69985 | 13248 ft | 384 kts | 46° |
| 2026-04-22 07:46 | 32.60492 | -64.67539 | 14191 ft | 389 kts | 45° |
| 2026-04-22 07:46 | 32.62240 | -64.65071 | 15055 ft | 393 kts | 45° |
| 2026-04-22 07:47 | 32.64015 | -64.62573 | 15899 ft | 399 kts | 45° |
| 2026-04-22 07:47 | 32.65816 | -64.60043 | 16709 ft | 404 kts | 45° |
| 2026-04-22 07:47 | 32.67644 | -64.57475 | 17531 ft | 410 kts | 45° |
| 2026-04-22 07:47 | 32.69498 | -64.54871 | 18361 ft | 415 kts | 45° |
| 2026-04-22 07:48 | 32.71373 | -64.52236 | 19078 ft | 421 kts | 45° |
| 2026-04-22 07:48 | 32.73278 | -64.49575 | 19812 ft | 424 kts | 45° |
| 2026-04-22 07:48 | 32.75220 | -64.46913 | 20546 ft | 428 kts | 44° |
| 2026-04-22 07:48 | 32.77187 | -64.44236 | 21278 ft | 432 kts | 44° |
| 2026-04-22 07:49 | 32.79172 | -64.41537 | 22009 ft | 436 kts | 44° |
| 2026-04-22 07:49 | 32.81174 | -64.38808 | 22723 ft | 440 kts | 44° |
| 2026-04-22 07:49 | 32.83192 | -64.36051 | 23402 ft | 444 kts | 44° |
| 2026-04-22 07:49 | 32.85230 | -64.33259 | 24010 ft | 449 kts | 44° |
| 2026-04-22 07:50 | 32.87288 | -64.30436 | 24526 ft | 454 kts | 44° |
| 2026-04-22 07:50 | 32.89362 | -64.27587 | 25090 ft | 457 kts | 44° |
| 2026-04-22 07:50 | 32.91450 | -64.24716 | 25633 ft | 461 kts | 44° |
| 2026-04-22 07:50 | 32.93554 | -64.21819 | 26150 ft | 464 kts | 44° |
| 2026-04-22 07:51 | 32.95676 | -64.18899 | 26665 ft | 468 kts | 44° |
| 2026-04-22 07:51 | 32.97810 | -64.15957 | 27183 ft | 471 kts | 44° |
| 2026-04-22 07:51 | 32.99958 | -64.12994 | 27670 ft | 474 kts | 44° |
| 2026-04-22 07:51 | 33.02124 | -64.10007 | 28157 ft | 478 kts | 44° |
| 2026-04-22 07:52 | 33.04304 | -64.06997 | 28583 ft | 482 kts | 45° |
| 2026-04-22 07:52 | 33.06501 | -64.03963 | 29028 ft | 485 kts | 45° |
| 2026-04-22 07:52 | 33.08683 | -64.00947 | 29416 ft | 488 kts | 45° |
| 2026-04-22 07:52 | 33.10906 | -63.97871 | 29799 ft | 491 kts | 45° |
| 2026-04-22 07:53 | 33.13167 | -63.94736 | 30291 ft | 491 kts | 45° |
| 2026-04-22 07:53 | 33.15389 | -63.91652 | 30765 ft | 490 kts | 45° |
| 2026-04-22 07:53 | 33.17611 | -63.88565 | 31178 ft | 490 kts | 44° |
| 2026-04-22 07:53 | 33.19806 | -63.85514 | 31530 ft | 492 kts | 44° |
| 2026-04-22 07:54 | 33.22036 | -63.82413 | 31900 ft | 493 kts | 44° |
| 2026-04-22 07:54 | 33.24269 | -63.79305 | 32288 ft | 493 kts | 44° |
| 2026-04-22 07:54 | 33.26504 | -63.76193 | 32664 ft | 494 kts | 44° |
| 2026-04-22 07:54 | 33.28740 | -63.73075 | 33035 ft | 495 kts | 44° |
| 2026-04-22 07:55 | 33.30985 | -63.69944 | 33291 ft | 497 kts | 44° |
| 2026-04-22 07:55 | 33.33236 | -63.66801 | 33675 ft | 498 kts | 44° |
| 2026-04-22 07:55 | 33.35484 | -63.63657 | 34096 ft | 497 kts | 44° |
| 2026-04-22 07:55 | 33.37728 | -63.60517 | 34384 ft | 497 kts | 44° |
| 2026-04-22 07:56 | 33.39982 | -63.57360 | 34622 ft | 499 kts | 44° |
| 2026-04-22 07:56 | 33.42238 | -63.54199 | 34872 ft | 500 kts | 44° |
| 2026-04-22 07:56 | 33.44503 | -63.51024 | 35075 ft | 503 kts | 44° |
| 2026-04-22 07:56 | 33.46785 | -63.47822 | 35107 ft | 507 kts | 44° |
| 2026-04-22 07:57 | 33.51347 | -63.41406 | 35159 ft | 504 kts | 44° |
| 2026-04-22 07:57 | 33.55877 | -63.35021 | 35143 ft | 502 kts | 44° |
| 2026-04-22 07:58 | 33.60389 | -63.28655 | 35146 ft | 501 kts | 44° |
| 2026-04-22 07:58 | 33.64897 | -63.22285 | 35144 ft | 501 kts | 44° |
| 2026-04-22 07:59 | 33.69405 | -63.15903 | 35161 ft | 501 kts | 44° |
| 2026-04-22 07:59 | 33.73918 | -63.09504 | 35145 ft | 503 kts | 44° |
| 2026-04-22 08:00 | 33.78439 | -63.03081 | 35150 ft | 504 kts | 44° |
| 2026-04-22 08:00 | 33.82968 | -62.96634 | 35146 ft | 505 kts | 44° |
| 2026-04-22 08:01 | 33.87504 | -62.90164 | 35156 ft | 506 kts | 44° |
| 2026-04-22 08:01 | 33.92045 | -62.83676 | 35143 ft | 507 kts | 44° |
| 2026-04-22 08:02 | 33.96584 | -62.77180 | 35143 ft | 507 kts | 45° |
| 2026-04-22 08:02 | 34.01096 | -62.70710 | 35140 ft | 507 kts | 45° |
| 2026-04-22 08:03 | 34.05633 | -62.64193 | 35152 ft | 508 kts | 45° |
| 2026-04-22 08:03 | 34.10171 | -62.57662 | 35129 ft | 508 kts | 45° |
| 2026-04-22 08:04 | 34.14704 | -62.51128 | 35132 ft | 508 kts | 45° |
| 2026-04-22 08:04 | 34.19234 | -62.44584 | 35142 ft | 508 kts | 45° |
| 2026-04-22 08:05 | 34.23770 | -62.38020 | 35138 ft | 509 kts | 45° |
| 2026-04-22 08:05 | 34.28308 | -62.31440 | 35140 ft | 509 kts | 45° |
| 2026-04-22 08:06 | 34.32840 | -62.24857 | 35132 ft | 509 kts | 45° |
| 2026-04-22 08:06 | 34.37371 | -62.18264 | 35152 ft | 510 kts | 46° |
| 2026-04-22 08:07 | 34.41930 | -62.11692 | 35139 ft | 509 kts | 44° |
| 2026-04-22 08:07 | 34.46727 | -62.05398 | 35135 ft | 508 kts | 42° |
| 2026-04-22 08:08 | 34.51598 | -61.99189 | 35133 ft | 508 kts | 42° |
| 2026-04-22 08:08 | 34.56444 | -61.92941 | 35148 ft | 509 kts | 42° |
| 2026-04-22 08:09 | 34.61266 | -61.86647 | 35126 ft | 510 kts | 43° |
| 2026-04-22 08:09 | 34.66084 | -61.80327 | 35133 ft | 510 kts | 43° |
| 2026-04-22 08:10 | 34.70872 | -61.74035 | 35134 ft | 511 kts | 43° |
| 2026-04-22 08:10 | 34.75695 | -61.67691 | 35137 ft | 511 kts | 43° |
| 2026-04-22 08:11 | 34.80516 | -61.61340 | 35129 ft | 511 kts | 43° |
| 2026-04-22 08:11 | 34.85329 | -61.54987 | 35129 ft | 510 kts | 43° |
| 2026-04-22 08:12 | 34.90132 | -61.48635 | 35130 ft | 509 kts | 43° |
| 2026-04-22 08:12 | 34.94929 | -61.42281 | 35127 ft | 509 kts | 43° |
| 2026-04-22 08:13 | 34.99715 | -61.35928 | 35130 ft | 509 kts | 43° |
| 2026-04-22 08:13 | 35.04500 | -61.29565 | 35115 ft | 509 kts | 44° |
| 2026-04-22 08:14 | 35.09297 | -61.23176 | 35135 ft | 511 kts | 44° |
| 2026-04-22 08:14 | 35.14104 | -61.16759 | 35132 ft | 513 kts | 44° |
| 2026-04-22 08:15 | 35.18920 | -61.10318 | 35129 ft | 514 kts | 44° |
| 2026-04-22 08:15 | 35.23738 | -61.03863 | 35130 ft | 514 kts | 44° |
| 2026-04-22 08:16 | 35.27779 | -60.98439 | 35123 ft | 515 kts | 45° |
| 2026-04-22 08:16 | 35.32604 | -60.91951 | 35124 ft | 516 kts | 45° |
| 2026-04-22 08:17 | 35.37431 | -60.85449 | 35122 ft | 516 kts | 45° |
| 2026-04-22 08:17 | 35.42260 | -60.78931 | 35127 ft | 516 kts | 45° |
| 2026-04-22 08:18 | 35.47052 | -60.72450 | 35104 ft | 516 kts | 45° |
| 2026-04-22 08:18 | 35.51878 | -60.65912 | 35127 ft | 517 kts | 45° |
| 2026-04-22 08:19 | 35.56706 | -60.59357 | 35132 ft | 518 kts | 45° |
| 2026-04-22 08:19 | 35.61537 | -60.52786 | 35119 ft | 518 kts | 45° |
| 2026-04-22 08:20 | 35.66368 | -60.46202 | 35120 ft | 519 kts | 45° |
| 2026-04-22 08:20 | 35.71200 | -60.39605 | 35149 ft | 519 kts | 46° |
| 2026-04-22 08:21 | 35.76038 | -60.32984 | 35118 ft | 520 kts | 46° |
| 2026-04-22 08:21 | 35.80879 | -60.26348 | 35122 ft | 521 kts | 46° |
| 2026-04-22 08:22 | 35.85719 | -60.19699 | 35120 ft | 521 kts | 46° |
| 2026-04-22 08:22 | 35.90556 | -60.13041 | 35112 ft | 522 kts | 46° |
| 2026-04-22 08:23 | 35.95395 | -60.06367 | 35114 ft | 522 kts | 47° |
| 2026-04-22 08:23 | 36.00242 | -59.99694 | 35120 ft | 522 kts | 45° |
| 2026-04-22 08:24 | 36.05335 | -59.93321 | 35118 ft | 521 kts | 43° |
| 2026-04-22 08:24 | 36.10521 | -59.87046 | 35107 ft | 522 kts | 43° |
| 2026-04-22 08:25 | 36.15699 | -59.80751 | 35111 ft | 523 kts | 43° |
| 2026-04-22 08:25 | 36.20865 | -59.74411 | 35125 ft | 523 kts | 44° |
| 2026-04-22 08:26 | 36.26028 | -59.68038 | 35112 ft | 524 kts | 44° |
| 2026-04-22 08:26 | 36.31193 | -59.61649 | 35110 ft | 525 kts | 44° |
| 2026-04-22 08:27 | 36.36359 | -59.55250 | 35118 ft | 525 kts | 44° |
| 2026-04-22 08:27 | 36.41491 | -59.48881 | 35115 ft | 526 kts | 44° |
| 2026-04-22 08:28 | 36.46695 | -59.42411 | 35106 ft | 526 kts | 44° |
| 2026-04-22 08:28 | 36.51829 | -59.36015 | 35103 ft | 526 kts | 44° |
| 2026-04-22 08:29 | 36.57030 | -59.29523 | 35087 ft | 526 kts | 44° |
| 2026-04-22 08:29 | 36.62159 | -59.23107 | 35098 ft | 527 kts | 45° |
| 2026-04-22 08:30 | 36.67323 | -59.16634 | 35117 ft | 527 kts | 45° |
| 2026-04-22 08:30 | 36.72494 | -59.10140 | 35103 ft | 528 kts | 45° |
| 2026-04-22 08:31 | 36.77663 | -59.03635 | 35101 ft | 528 kts | 45° |
| 2026-04-22 08:32 | 36.85409 | -58.93863 | 35111 ft | 528 kts | 45° |
| 2026-04-22 08:32 | 36.90579 | -58.87323 | 35100 ft | 529 kts | 45° |
| 2026-04-22 08:33 | 36.95747 | -58.80772 | 35095 ft | 529 kts | 45° |
| 2026-04-22 08:33 | 37.00912 | -58.74212 | 35102 ft | 529 kts | 45° |
| 2026-04-22 08:34 | 37.06077 | -58.67639 | 35093 ft | 529 kts | 45° |
| 2026-04-22 08:34 | 37.11236 | -58.61060 | 35097 ft | 529 kts | 45° |
| 2026-04-22 08:35 | 37.16390 | -58.54472 | 35096 ft | 529 kts | 45° |
| 2026-04-22 08:35 | 37.21540 | -58.47878 | 35088 ft | 529 kts | 46° |
| 2026-04-22 08:36 | 37.26680 | -58.41282 | 35080 ft | 529 kts | 46° |
| 2026-04-22 08:36 | 37.31822 | -58.34670 | 35089 ft | 530 kts | 46° |
| 2026-04-22 08:37 | 37.36970 | -58.28035 | 35085 ft | 530 kts | 46° |
| 2026-04-22 08:37 | 37.42116 | -58.21390 | 35096 ft | 530 kts | 46° |
| 2026-04-22 08:38 | 37.47262 | -58.14731 | 35077 ft | 531 kts | 46° |
| 2026-04-22 08:38 | 37.52405 | -58.08062 | 35080 ft | 531 kts | 46° |
| 2026-04-22 08:39 | 37.57544 | -58.01383 | 35085 ft | 531 kts | 46° |
| 2026-04-22 08:39 | 37.62685 | -57.94688 | 35078 ft | 531 kts | 46° |
| 2026-04-22 08:40 | 37.67816 | -57.87992 | 35062 ft | 531 kts | 47° |
| 2026-04-22 08:40 | 37.72942 | -57.81289 | 35077 ft | 530 kts | 47° |
| 2026-04-22 08:41 | 37.78063 | -57.74577 | 35074 ft | 530 kts | 47° |
| 2026-04-22 08:41 | 37.83146 | -57.67901 | 35065 ft | 530 kts | 47° |
| 2026-04-22 08:42 | 37.88259 | -57.61172 | 35065 ft | 530 kts | 47° |
| 2026-04-22 08:42 | 37.93367 | -57.54435 | 35064 ft | 530 kts | 48° |
| 2026-04-22 08:43 | 37.98473 | -57.47685 | 35057 ft | 531 kts | 48° |
| 2026-04-22 08:43 | 38.03582 | -57.40917 | 35065 ft | 531 kts | 48° |
| 2026-04-22 08:44 | 38.08684 | -57.34144 | 35044 ft | 531 kts | 48° |
| 2026-04-22 08:44 | 38.13787 | -57.27355 | 35069 ft | 532 kts | 48° |
| 2026-04-22 08:45 | 38.18894 | -57.20546 | 35056 ft | 533 kts | 49° |
| 2026-04-22 08:45 | 38.24004 | -57.13719 | 35043 ft | 533 kts | 49° |
| 2026-04-22 08:46 | 38.29116 | -57.06874 | 35041 ft | 533 kts | 49° |
| 2026-04-22 08:46 | 38.34225 | -57.00017 | 35040 ft | 534 kts | 49° |
| 2026-04-22 08:47 | 38.39332 | -56.93148 | 35024 ft | 534 kts | 49° |
| 2026-04-22 08:47 | 38.44443 | -56.86259 | 35039 ft | 535 kts | 49° |
| 2026-04-22 08:48 | 38.49549 | -56.79361 | 35024 ft | 534 kts | 49° |
| 2026-04-22 08:48 | 38.54650 | -56.72455 | 35018 ft | 534 kts | 49° |
| 2026-04-22 08:49 | 38.59749 | -56.65536 | 35028 ft | 535 kts | 49° |
| 2026-04-22 08:49 | 38.64845 | -56.58605 | 35017 ft | 535 kts | 49° |
| 2026-04-22 08:50 | 38.69932 | -56.51672 | 35033 ft | 534 kts | 50° |
| 2026-04-22 08:50 | 38.75017 | -56.44726 | 35006 ft | 534 kts | 50° |
| 2026-04-22 08:51 | 38.80095 | -56.37775 | 34999 ft | 534 kts | 50° |
| 2026-04-22 08:51 | 38.85168 | -56.30814 | 35002 ft | 534 kts | 50° |
| 2026-04-22 08:52 | 38.90230 | -56.23853 | 34993 ft | 533 kts | 50° |
| 2026-04-22 08:52 | 38.95290 | -56.16879 | 34998 ft | 533 kts | 50° |
| 2026-04-22 08:53 | 39.00312 | -56.09941 | 35001 ft | 534 kts | 51° |
| 2026-04-22 08:53 | 39.05369 | -56.02940 | 34992 ft | 534 kts | 51° |
| 2026-04-22 08:54 | 39.10422 | -55.95927 | 35007 ft | 534 kts | 51° |
| 2026-04-22 08:54 | 39.15475 | -55.88901 | 34984 ft | 534 kts | 51° |
| 2026-04-22 08:55 | 39.20518 | -55.81871 | 34990 ft | 534 kts | 51° |
| 2026-04-22 08:55 | 39.25555 | -55.74835 | 34975 ft | 534 kts | 51° |
| 2026-04-22 08:56 | 39.30586 | -55.67789 | 34976 ft | 534 kts | 51° |
| 2026-04-22 08:56 | 39.35619 | -55.60724 | 34976 ft | 535 kts | 51° |
| 2026-04-22 08:57 | 39.40654 | -55.53642 | 34973 ft | 535 kts | 51° |
| 2026-04-22 08:57 | 39.45688 | -55.46544 | 34964 ft | 536 kts | 52° |
| 2026-04-22 08:58 | 39.50730 | -55.39418 | 34978 ft | 537 kts | 52° |
| 2026-04-22 08:58 | 39.55778 | -55.32268 | 34967 ft | 538 kts | 52° |
| 2026-04-22 08:59 | 39.60830 | -55.25094 | 34953 ft | 539 kts | 53° |
| 2026-04-22 08:59 | 39.65885 | -55.17902 | 34955 ft | 540 kts | 53° |
| 2026-04-22 09:00 | 39.70939 | -55.10693 | 34959 ft | 540 kts | 53° |
| 2026-04-22 09:00 | 39.75137 | -55.04693 | 34938 ft | 540 kts | 54° |
| 2026-04-22 09:01 | 39.81044 | -54.96229 | 34953 ft | 541 kts | 54° |
| 2026-04-22 09:01 | 39.85247 | -54.90193 | 34944 ft | 542 kts | 54° |
| 2026-04-22 09:02 | 39.90302 | -54.82916 | 34941 ft | 542 kts | 55° |
| 2026-04-22 09:02 | 39.92828 | -54.79275 | 35130 ft | 541 kts | 55° |
| 2026-04-22 09:02 | 39.95354 | -54.75627 | 35346 ft | 542 kts | 54° |
| 2026-04-22 09:02 | 39.97882 | -54.71972 | 35487 ft | 545 kts | 54° |
| 2026-04-22 09:03 | 40.00429 | -54.68280 | 35452 ft | 550 kts | 54° |
| 2026-04-22 09:03 | 40.02990 | -54.64566 | 35719 ft | 550 kts | 54° |
| 2026-04-22 09:03 | 40.05543 | -54.60866 | 36132 ft | 547 kts | 54° |
| 2026-04-22 09:03 | 40.08082 | -54.57185 | 36557 ft | 544 kts | 53° |
| 2026-04-22 09:04 | 40.10573 | -54.53567 | 36924 ft | 542 kts | 53° |
| 2026-04-22 09:04 | 40.15645 | -54.46175 | 36908 ft | 548 kts | 53° |
| 2026-04-22 09:05 | 40.20709 | -54.38782 | 36880 ft | 543 kts | 53° |
| 2026-04-22 09:05 | 40.25733 | -54.31431 | 36884 ft | 541 kts | 53° |
| 2026-04-22 09:06 | 40.30736 | -54.24088 | 36878 ft | 540 kts | 53° |
| 2026-04-22 09:06 | 40.35735 | -54.16732 | 36881 ft | 541 kts | 53° |
| 2026-04-22 09:07 | 40.40735 | -54.09357 | 36866 ft | 542 kts | 53° |
| 2026-04-22 09:07 | 40.45757 | -54.01933 | 36869 ft | 544 kts | 53° |
| 2026-04-22 09:08 | 40.50788 | -53.94478 | 36839 ft | 546 kts | 52° |
| 2026-04-22 09:08 | 40.55833 | -53.86986 | 36847 ft | 548 kts | 52° |
| 2026-04-22 09:09 | 40.60884 | -53.79468 | 36838 ft | 548 kts | 52° |
| 2026-04-22 09:09 | 40.65930 | -53.71937 | 36828 ft | 549 kts | 52° |
| 2026-04-22 09:10 | 40.70971 | -53.64395 | 36823 ft | 548 kts | 52° |
| 2026-04-22 09:10 | 40.75999 | -53.56852 | 36822 ft | 547 kts | 52° |
| 2026-04-22 09:11 | 40.81010 | -53.49316 | 36822 ft | 546 kts | 52° |
| 2026-04-22 09:11 | 40.86009 | -53.41782 | 36817 ft | 545 kts | 52° |
| 2026-04-22 09:12 | 40.90989 | -53.34255 | 36788 ft | 543 kts | 53° |
| 2026-04-22 09:12 | 40.95951 | -53.26737 | 36802 ft | 542 kts | 53° |
| 2026-04-22 09:13 | 41.00903 | -53.19214 | 36801 ft | 542 kts | 53° |
| 2026-04-22 09:13 | 41.05847 | -53.11685 | 36799 ft | 541 kts | 53° |
| 2026-04-22 09:14 | 41.10781 | -53.04155 | 36787 ft | 541 kts | 53° |
| 2026-04-22 09:14 | 41.15703 | -52.96622 | 36752 ft | 540 kts | 53° |
| 2026-04-22 09:15 | 41.20615 | -52.89087 | 36772 ft | 539 kts | 53° |
| 2026-04-22 09:15 | 41.25519 | -52.81545 | 36767 ft | 539 kts | 53° |
| 2026-04-22 09:16 | 41.30421 | -52.73986 | 36756 ft | 540 kts | 53° |
| 2026-04-22 09:16 | 41.35323 | -52.66407 | 36764 ft | 540 kts | 53° |
| 2026-04-22 09:17 | 41.40222 | -52.58818 | 36778 ft | 540 kts | 53° |
| 2026-04-22 09:17 | 41.45117 | -52.51213 | 36770 ft | 541 kts | 53° |
| 2026-04-22 09:18 | 41.50012 | -52.43589 | 36779 ft | 541 kts | 53° |
| 2026-04-22 09:18 | 41.54907 | -52.35946 | 36779 ft | 542 kts | 53° |
| 2026-04-22 09:19 | 41.59795 | -52.28293 | 36781 ft | 541 kts | 53° |
| 2026-04-22 09:19 | 41.64671 | -52.20641 | 36784 ft | 541 kts | 53° |
| 2026-04-22 09:20 | 41.69545 | -52.12973 | 36778 ft | 540 kts | 53° |
| 2026-04-22 09:20 | 41.74397 | -52.05321 | 36791 ft | 538 kts | 53° |
| 2026-04-22 09:21 | 41.79197 | -51.97729 | 36802 ft | 537 kts | 53° |
| 2026-04-22 09:21 | 41.84012 | -51.90095 | 36798 ft | 535 kts | 53° |
| 2026-04-22 09:22 | 41.88807 | -51.82472 | 36814 ft | 534 kts | 53° |
| 2026-04-22 09:22 | 41.93584 | -51.74861 | 36819 ft | 533 kts | 53° |
| 2026-04-22 09:23 | 41.98351 | -51.67243 | 36824 ft | 532 kts | 53° |
| 2026-04-22 09:23 | 42.03109 | -51.59622 | 36754 ft | 530 kts | 53° |
| 2026-04-22 09:23 | 42.05474 | -51.55827 | 36452 ft | 529 kts | 53° |
| 2026-04-22 09:24 | 42.07841 | -51.52024 | 36069 ft | 531 kts | 53° |
| 2026-04-22 09:24 | 42.10209 | -51.48213 | 35720 ft | 530 kts | 53° |
| 2026-04-22 09:24 | 42.12574 | -51.44403 | 35407 ft | 530 kts | 53° |
| 2026-04-22 09:24 | 42.14934 | -51.40595 | 35070 ft | 530 kts | 54° |
| 2026-04-22 09:25 | 42.17293 | -51.36786 | 34819 ft | 528 kts | 54° |
| 2026-04-22 09:25 | 42.21979 | -51.29205 | 34833 ft | 527 kts | 54° |
| 2026-04-22 09:26 | 42.26664 | -51.21559 | 34844 ft | 529 kts | 54° |
| 2026-04-22 09:26 | 42.31357 | -51.13881 | 34850 ft | 530 kts | 54° |
| 2026-04-22 09:27 | 42.36063 | -51.06213 | 34845 ft | 530 kts | 54° |
| 2026-04-22 09:27 | 42.40761 | -50.98547 | 34856 ft | 529 kts | 54° |
| 2026-04-22 09:28 | 42.45441 | -50.90882 | 34864 ft | 528 kts | 54° |
| 2026-04-22 09:28 | 42.50107 | -50.83214 | 34852 ft | 527 kts | 54° |
| 2026-04-22 09:29 | 42.54751 | -50.75562 | 34873 ft | 525 kts | 54° |
| 2026-04-22 09:29 | 42.59386 | -50.67905 | 34882 ft | 524 kts | 54° |
| 2026-04-22 09:30 | 42.64009 | -50.60250 | 34882 ft | 524 kts | 54° |
| 2026-04-22 09:30 | 42.68616 | -50.52601 | 34899 ft | 523 kts | 54° |
| 2026-04-22 09:31 | 42.73214 | -50.44947 | 34903 ft | 522 kts | 54° |
| 2026-04-22 09:31 | 42.77803 | -50.37290 | 34890 ft | 522 kts | 54° |
| 2026-04-22 09:32 | 42.82378 | -50.29637 | 34905 ft | 521 kts | 54° |
| 2026-04-22 09:32 | 42.86943 | -50.21982 | 34913 ft | 520 kts | 54° |
| 2026-04-22 09:33 | 42.91496 | -50.14332 | 34911 ft | 519 kts | 54° |
| 2026-04-22 09:33 | 42.96037 | -50.06686 | 34923 ft | 518 kts | 54° |
| 2026-04-22 09:34 | 43.00336 | -49.98830 | 34925 ft | 515 kts | 62° |
| 2026-04-22 09:34 | 43.03625 | -49.90219 | 34931 ft | 510 kts | 68° |
| 2026-04-22 09:35 | 43.08214 | -49.77099 | 34938 ft | 510 kts | 68° |
| 2026-04-22 09:35 | 43.11289 | -49.68420 | 34945 ft | 510 kts | 68° |
| 2026-04-22 09:36 | 43.14401 | -49.59684 | 34946 ft | 511 kts | 67° |
| 2026-04-22 09:36 | 43.17511 | -49.50942 | 34949 ft | 510 kts | 67° |
| 2026-04-22 09:37 | 43.20614 | -49.42189 | 34953 ft | 511 kts | 67° |
| 2026-04-22 09:37 | 43.23707 | -49.33425 | 34960 ft | 510 kts | 68° |
| 2026-04-22 09:38 | 43.26791 | -49.24658 | 34952 ft | 510 kts | 67° |
| 2026-04-22 09:38 | 43.29866 | -49.15892 | 34963 ft | 509 kts | 67° |
| 2026-04-22 09:39 | 43.32929 | -49.07129 | 34967 ft | 509 kts | 67° |
| 2026-04-22 09:39 | 43.35980 | -48.98373 | 34963 ft | 508 kts | 66° |
| 2026-04-22 09:40 | 43.39020 | -48.89622 | 34976 ft | 507 kts | 66° |
| 2026-04-22 09:40 | 43.42049 | -48.80875 | 34975 ft | 506 kts | 66° |
| 2026-04-22 09:41 | 43.45068 | -48.72129 | 34973 ft | 506 kts | 67° |
| 2026-04-22 09:41 | 43.48074 | -48.63388 | 34983 ft | 505 kts | 66° |
| 2026-04-22 09:42 | 43.51071 | -48.54651 | 34986 ft | 504 kts | 66° |
| 2026-04-22 09:42 | 43.54058 | -48.45913 | 34989 ft | 504 kts | 66° |
| 2026-04-22 09:43 | 43.57038 | -48.37168 | 34996 ft | 504 kts | 66° |
| 2026-04-22 09:43 | 43.60008 | -48.28422 | 34998 ft | 503 kts | 66° |
| 2026-04-22 09:44 | 43.62969 | -48.19677 | 34999 ft | 503 kts | 66° |
| 2026-04-22 09:44 | 43.65921 | -48.10929 | 35003 ft | 503 kts | 66° |
| 2026-04-22 09:45 | 43.68369 | -48.03651 | 34994 ft | 502 kts | 66° |
| 2026-04-22 09:45 | 43.71306 | -47.94898 | 34998 ft | 502 kts | 66° |
| 2026-04-22 09:46 | 43.74234 | -47.86140 | 35003 ft | 502 kts | 66° |
| 2026-04-22 09:46 | 43.77155 | -47.77377 | 35003 ft | 502 kts | 65° |
| 2026-04-22 09:47 | 43.80069 | -47.68602 | 35008 ft | 502 kts | 65° |
| 2026-04-22 09:47 | 43.82976 | -47.59822 | 35006 ft | 502 kts | 65° |
| 2026-04-22 09:48 | 43.85877 | -47.51033 | 35014 ft | 501 kts | 65° |
| 2026-04-22 09:48 | 43.88769 | -47.42240 | 35013 ft | 501 kts | 65° |
| 2026-04-22 09:49 | 43.91652 | -47.33444 | 35015 ft | 501 kts | 65° |
| 2026-04-22 09:49 | 43.94528 | -47.24643 | 35012 ft | 501 kts | 65° |
| 2026-04-22 09:50 | 43.97396 | -47.15838 | 35016 ft | 501 kts | 65° |
| 2026-04-22 09:50 | 44.00254 | -47.07032 | 35016 ft | 500 kts | 65° |
| 2026-04-22 09:51 | 44.03080 | -46.98297 | 35016 ft | 499 kts | 65° |
| 2026-04-22 09:51 | 44.05916 | -46.89502 | 35016 ft | 498 kts | 65° |
| 2026-04-22 09:52 | 44.08738 | -46.80717 | 35030 ft | 497 kts | 65° |
| 2026-04-22 09:52 | 44.11544 | -46.71959 | 35019 ft | 494 kts | 65° |
| 2026-04-22 09:53 | 44.14331 | -46.63229 | 35029 ft | 492 kts | 65° |
| 2026-04-22 09:53 | 44.17097 | -46.54533 | 35026 ft | 490 kts | 65° |
| 2026-04-22 09:54 | 44.19850 | -46.45851 | 35032 ft | 490 kts | 65° |
| 2026-04-22 09:54 | 44.22595 | -46.37165 | 35038 ft | 490 kts | 65° |
| 2026-04-22 09:55 | 44.25338 | -46.28462 | 35041 ft | 491 kts | 65° |
| 2026-04-22 09:55 | 44.28079 | -46.19731 | 35045 ft | 492 kts | 65° |
| 2026-04-22 09:56 | 44.30818 | -46.10976 | 35049 ft | 493 kts | 65° |
| 2026-04-22 09:56 | 44.33555 | -46.02202 | 35048 ft | 493 kts | 65° |
| 2026-04-22 09:57 | 44.36287 | -45.93408 | 35047 ft | 494 kts | 65° |
| 2026-04-22 09:57 | 44.39015 | -45.84600 | 35067 ft | 494 kts | 65° |
| 2026-04-22 09:58 | 44.41739 | -45.75776 | 35059 ft | 494 kts | 65° |
| 2026-04-22 09:58 | 44.44454 | -45.66951 | 35054 ft | 493 kts | 65° |
| 2026-04-22 09:59 | 44.47157 | -45.58132 | 35066 ft | 493 kts | 65° |
| 2026-04-22 09:59 | 44.49850 | -45.49315 | 35082 ft | 492 kts | 64° |
| 2026-04-22 10:00 | 44.52527 | -45.40523 | 35074 ft | 489 kts | 64° |
| 2026-04-22 10:00 | 44.55183 | -45.31769 | 35070 ft | 487 kts | 64° |
| 2026-04-22 10:01 | 44.57824 | -45.23035 | 35076 ft | 485 kts | 64° |
| 2026-04-22 10:01 | 44.60447 | -45.14330 | 35086 ft | 484 kts | 64° |
| 2026-04-22 10:02 | 44.63057 | -45.05639 | 35082 ft | 482 kts | 64° |
| 2026-04-22 10:02 | 44.65654 | -44.96964 | 35083 ft | 482 kts | 64° |
| 2026-04-22 10:03 | 44.68225 | -44.88345 | 35090 ft | 481 kts | 64° |
| 2026-04-22 10:03 | 44.70806 | -44.79661 | 35103 ft | 482 kts | 64° |
| 2026-04-22 10:04 | 44.73382 | -44.70967 | 35100 ft | 482 kts | 64° |
| 2026-04-22 10:04 | 44.75950 | -44.62266 | 35097 ft | 482 kts | 64° |
| 2026-04-22 10:05 | 44.78512 | -44.53558 | 35112 ft | 482 kts | 64° |
| 2026-04-22 10:05 | 44.81069 | -44.44836 | 35098 ft | 482 kts | 64° |
| 2026-04-22 10:06 | 44.83618 | -44.36109 | 35108 ft | 482 kts | 64° |
| 2026-04-22 10:06 | 44.86161 | -44.27376 | 35107 ft | 482 kts | 64° |
| 2026-04-22 10:07 | 44.88696 | -44.18637 | 35120 ft | 481 kts | 64° |
| 2026-04-22 10:07 | 44.91221 | -44.09899 | 35120 ft | 481 kts | 63° |
| 2026-04-22 10:08 | 44.93735 | -44.01172 | 35110 ft | 479 kts | 63° |
| 2026-04-22 10:08 | 44.96236 | -43.92459 | 35116 ft | 478 kts | 63° |
| 2026-04-22 10:09 | 44.98724 | -43.83763 | 35141 ft | 477 kts | 63° |
| 2026-04-22 10:09 | 45.01203 | -43.75063 | 35125 ft | 477 kts | 63° |
| 2026-04-22 10:10 | 45.03672 | -43.66373 | 35119 ft | 476 kts | 63° |
| 2026-04-22 10:10 | 45.06132 | -43.57684 | 35122 ft | 476 kts | 63° |
| 2026-04-22 10:11 | 45.08584 | -43.48987 | 35146 ft | 476 kts | 63° |
| 2026-04-22 10:11 | 45.11033 | -43.40276 | 35132 ft | 476 kts | 63° |
| 2026-04-22 10:12 | 45.13472 | -43.31566 | 35130 ft | 476 kts | 63° |
| 2026-04-22 10:12 | 45.15902 | -43.22856 | 35136 ft | 475 kts | 63° |
| 2026-04-22 10:13 | 45.18326 | -43.14138 | 35155 ft | 476 kts | 63° |
| 2026-04-22 10:13 | 45.20727 | -43.05471 | 35141 ft | 476 kts | 63° |
| 2026-04-22 10:14 | 45.23155 | -42.96677 | 35141 ft | 475 kts | 63° |
| 2026-04-22 10:14 | 45.25541 | -42.88000 | 35141 ft | 475 kts | 63° |
| 2026-04-22 10:15 | 45.27952 | -42.79203 | 35160 ft | 475 kts | 63° |
| 2026-04-22 10:15 | 45.30343 | -42.70448 | 35148 ft | 475 kts | 63° |
| 2026-04-22 10:16 | 45.32726 | -42.61688 | 35143 ft | 475 kts | 63° |
| 2026-04-22 10:16 | 45.35100 | -42.52929 | 35146 ft | 475 kts | 63° |
| 2026-04-22 10:17 | 45.37452 | -42.44219 | 35160 ft | 475 kts | 62° |
| 2026-04-22 10:17 | 45.39812 | -42.35451 | 35146 ft | 474 kts | 62° |
| 2026-04-22 10:18 | 45.42162 | -42.26683 | 35145 ft | 473 kts | 62° |
| 2026-04-22 10:18 | 45.44501 | -42.17928 | 35147 ft | 473 kts | 62° |
| 2026-04-22 10:19 | 45.46830 | -42.09178 | 35157 ft | 472 kts | 62° |
| 2026-04-22 10:19 | 45.49149 | -42.00430 | 35147 ft | 471 kts | 62° |
| 2026-04-22 10:20 | 45.51457 | -41.91693 | 35141 ft | 471 kts | 62° |
| 2026-04-22 10:20 | 45.53754 | -41.82966 | 35146 ft | 470 kts | 62° |
| 2026-04-22 10:21 | 45.56044 | -41.74236 | 35177 ft | 470 kts | 62° |
| 2026-04-22 10:21 | 45.58327 | -41.65497 | 35151 ft | 470 kts | 62° |
| 2026-04-22 10:22 | 45.60600 | -41.56763 | 35145 ft | 469 kts | 62° |
| 2026-04-22 10:22 | 45.62864 | -41.48034 | 35146 ft | 468 kts | 62° |
| 2026-04-22 10:23 | 45.65118 | -41.39309 | 35178 ft | 468 kts | 62° |
| 2026-04-22 10:23 | 45.67367 | -41.30571 | 35153 ft | 468 kts | 62° |
| 2026-04-22 10:24 | 45.69606 | -41.21840 | 35146 ft | 467 kts | 62° |
| 2026-04-22 10:24 | 45.71836 | -41.13110 | 35145 ft | 467 kts | 62° |
| 2026-04-22 10:25 | 45.74056 | -41.04386 | 35184 ft | 466 kts | 62° |
| 2026-04-22 10:25 | 45.76271 | -40.95650 | 35151 ft | 467 kts | 62° |
| 2026-04-22 10:26 | 45.78477 | -40.86918 | 35142 ft | 466 kts | 62° |
| 2026-04-22 10:26 | 45.80675 | -40.78182 | 35144 ft | 466 kts | 62° |
| 2026-04-22 10:27 | 45.82865 | -40.69446 | 35144 ft | 466 kts | 62° |
| 2026-04-22 10:27 | 45.85049 | -40.60705 | 35149 ft | 466 kts | 62° |
| 2026-04-22 10:28 | 45.87226 | -40.51953 | 35141 ft | 465 kts | 62° |
| 2026-04-22 10:28 | 45.89391 | -40.43215 | 35141 ft | 464 kts | 62° |
| 2026-04-22 10:29 | 45.91549 | -40.34478 | 35142 ft | 464 kts | 62° |
| 2026-04-22 10:29 | 45.93685 | -40.25801 | 35146 ft | 464 kts | 63° |
| 2026-04-22 10:30 | 45.95842 | -40.17004 | 35128 ft | 463 kts | 63° |
| 2026-04-22 10:30 | 45.97965 | -40.08329 | 35129 ft | 463 kts | 63° |
| 2026-04-22 10:31 | 45.99744 | -40.01016 | 35142 ft | 462 kts | 63° |
| 2026-04-22 10:31 | 46.01892 | -39.92310 | 35150 ft | 462 kts | 63° |
| 2026-04-22 10:32 | 46.04074 | -39.83617 | 35135 ft | 462 kts | 63° |
| 2026-04-22 10:32 | 46.06255 | -39.74926 | 35129 ft | 461 kts | 63° |
| 2026-04-22 10:33 | 46.08411 | -39.66287 | 35131 ft | 461 kts | 63° |
| 2026-04-22 10:33 | 46.10570 | -39.57589 | 35155 ft | 461 kts | 63° |
| 2026-04-22 10:34 | 46.12721 | -39.48888 | 35127 ft | 460 kts | 63° |
| 2026-04-22 10:34 | 46.14854 | -39.40219 | 35119 ft | 458 kts | 63° |
| 2026-04-22 10:35 | 46.16974 | -39.31574 | 35121 ft | 456 kts | 63° |
| 2026-04-22 10:35 | 46.19082 | -39.22951 | 35122 ft | 455 kts | 63° |
| 2026-04-22 10:36 | 46.21182 | -39.14328 | 35123 ft | 455 kts | 63° |
| 2026-04-22 10:36 | 46.23276 | -39.05700 | 35123 ft | 456 kts | 63° |
| 2026-04-22 10:37 | 46.26410 | -38.92716 | 35116 ft | 457 kts | 63° |
| 2026-04-22 10:38 | 46.28494 | -38.84041 | 35146 ft | 457 kts | 63° |
| 2026-04-22 10:38 | 46.30572 | -38.75353 | 35119 ft | 457 kts | 63° |
| 2026-04-22 10:39 | 46.32638 | -38.66678 | 35119 ft | 455 kts | 63° |
| 2026-04-22 10:39 | 46.34690 | -38.58030 | 35110 ft | 454 kts | 63° |
| 2026-04-22 10:40 | 46.36733 | -38.49387 | 35101 ft | 453 kts | 63° |
| 2026-04-22 10:40 | 46.38767 | -38.40752 | 35124 ft | 453 kts | 63° |
| 2026-04-22 10:41 | 46.40793 | -38.32117 | 35109 ft | 453 kts | 63° |
| 2026-04-22 10:41 | 46.42812 | -38.23474 | 35106 ft | 452 kts | 63° |
| 2026-04-22 10:42 | 46.44823 | -38.14833 | 35104 ft | 452 kts | 63° |
| 2026-04-22 10:42 | 46.46814 | -38.06247 | 35109 ft | 453 kts | 63° |
| 2026-04-22 10:43 | 46.48812 | -37.97592 | 35103 ft | 452 kts | 63° |
| 2026-04-22 10:43 | 46.50802 | -37.88939 | 35098 ft | 452 kts | 63° |
| 2026-04-22 10:44 | 46.52782 | -37.80293 | 35096 ft | 451 kts | 63° |
| 2026-04-22 10:44 | 46.54754 | -37.71648 | 35131 ft | 451 kts | 64° |
| 2026-04-22 10:45 | 46.56721 | -37.62992 | 35094 ft | 451 kts | 64° |
| 2026-04-22 10:45 | 46.58677 | -37.54346 | 35086 ft | 450 kts | 64° |
| 2026-04-22 10:46 | 46.60623 | -37.45709 | 35082 ft | 449 kts | 64° |
| 2026-04-22 10:46 | 46.62559 | -37.37081 | 35085 ft | 449 kts | 64° |
| 2026-04-22 10:47 | 46.64492 | -37.28441 | 35090 ft | 449 kts | 64° |
| 2026-04-22 10:47 | 46.66415 | -37.19803 | 35082 ft | 448 kts | 64° |
| 2026-04-22 10:48 | 46.68317 | -37.11223 | 35076 ft | 448 kts | 65° |
| 2026-04-22 10:48 | 46.70224 | -37.02585 | 35070 ft | 448 kts | 65° |
| 2026-04-22 10:49 | 46.72123 | -36.93951 | 35078 ft | 448 kts | 65° |
| 2026-04-22 10:49 | 46.74017 | -36.85306 | 35066 ft | 448 kts | 65° |
| 2026-04-22 10:50 | 46.75903 | -36.76651 | 35102 ft | 448 kts | 65° |
| 2026-04-22 10:50 | 46.77788 | -36.67978 | 35070 ft | 449 kts | 66° |
| 2026-04-22 10:51 | 46.79670 | -36.59282 | 35099 ft | 450 kts | 66° |
| 2026-04-22 10:51 | 46.81550 | -36.50554 | 35068 ft | 451 kts | 67° |
| 2026-04-22 10:52 | 46.83426 | -36.41803 | 35051 ft | 452 kts | 67° |
| 2026-04-22 10:52 | 46.85296 | -36.33044 | 35048 ft | 452 kts | 67° |
| 2026-04-22 10:53 | 46.87160 | -36.24273 | 35041 ft | 452 kts | 67° |
| 2026-04-22 10:53 | 46.89018 | -36.15502 | 35049 ft | 452 kts | 68° |
| 2026-04-22 10:54 | 46.90869 | -36.06722 | 35037 ft | 452 kts | 68° |
| 2026-04-22 10:54 | 46.92710 | -35.97945 | 35035 ft | 451 kts | 68° |
| 2026-04-22 10:55 | 46.94545 | -35.89167 | 35035 ft | 451 kts | 68° |
| 2026-04-22 10:55 | 46.96371 | -35.80391 | 35050 ft | 451 kts | 69° |
| 2026-04-22 10:56 | 46.98191 | -35.71611 | 35021 ft | 450 kts | 69° |
| 2026-04-22 10:56 | 47.00001 | -35.62835 | 35018 ft | 450 kts | 69° |
| 2026-04-22 10:57 | 47.01803 | -35.54058 | 35015 ft | 450 kts | 69° |
| 2026-04-22 10:57 | 47.03597 | -35.45283 | 35014 ft | 449 kts | 69° |
| 2026-04-22 10:58 | 47.05386 | -35.36498 | 35016 ft | 449 kts | 70° |
| 2026-04-22 10:58 | 47.07155 | -35.27768 | 35008 ft | 450 kts | 70° |
| 2026-04-22 10:59 | 47.08930 | -35.18973 | 35008 ft | 450 kts | 70° |
| 2026-04-22 10:59 | 47.10699 | -35.10166 | 35027 ft | 450 kts | 70° |
| 2026-04-22 11:00 | 47.12465 | -35.01340 | 34980 ft | 450 kts | 71° |
| 2026-04-22 11:00 | 47.14217 | -34.92536 | 34985 ft | 448 kts | 71° |
| 2026-04-22 11:01 | 47.15955 | -34.83765 | 34989 ft | 446 kts | 71° |
| 2026-04-22 11:01 | 47.17681 | -34.75011 | 34990 ft | 446 kts | 71° |
| 2026-04-22 11:02 | 47.19399 | -34.66264 | 34980 ft | 445 kts | 71° |
| 2026-04-22 11:02 | 47.21111 | -34.57513 | 34983 ft | 446 kts | 71° |
| 2026-04-22 11:03 | 47.22819 | -34.48741 | 34976 ft | 446 kts | 71° |
| 2026-04-22 11:03 | 47.24521 | -34.39957 | 34961 ft | 447 kts | 71° |
| 2026-04-22 11:04 | 47.26219 | -34.31151 | 34964 ft | 447 kts | 71° |
| 2026-04-22 11:04 | 47.27912 | -34.22333 | 34957 ft | 448 kts | 72° |
| 2026-04-22 11:05 | 47.29600 | -34.13498 | 34949 ft | 448 kts | 72° |
| 2026-04-22 11:05 | 47.31281 | -34.04655 | 34946 ft | 448 kts | 72° |
| 2026-04-22 11:06 | 47.32944 | -33.95870 | 34946 ft | 448 kts | 72° |
| 2026-04-22 11:06 | 47.34611 | -33.87022 | 34941 ft | 448 kts | 72° |
| 2026-04-22 11:07 | 47.36271 | -33.78166 | 34942 ft | 448 kts | 72° |
| 2026-04-22 11:07 | 47.37923 | -33.69318 | 34919 ft | 447 kts | 72° |
| 2026-04-22 11:08 | 47.39566 | -33.60469 | 34914 ft | 447 kts | 72° |
| 2026-04-22 11:08 | 47.41202 | -33.51623 | 34913 ft | 447 kts | 72° |
| 2026-04-22 11:09 | 47.42828 | -33.42783 | 34936 ft | 446 kts | 72° |
| 2026-04-22 11:09 | 47.44449 | -33.33933 | 34920 ft | 446 kts | 72° |
| 2026-04-22 11:10 | 47.46062 | -33.25080 | 34908 ft | 446 kts | 72° |
| 2026-04-22 11:10 | 47.47666 | -33.16235 | 34905 ft | 446 kts | 72° |
| 2026-04-22 11:11 | 47.49265 | -33.07374 | 34894 ft | 446 kts | 72° |
| 2026-04-22 11:11 | 47.50858 | -32.98511 | 34903 ft | 446 kts | 72° |
| 2026-04-22 11:12 | 47.52443 | -32.89635 | 34883 ft | 446 kts | 72° |
| 2026-04-22 11:12 | 47.54022 | -32.80754 | 34881 ft | 447 kts | 72° |
| 2026-04-22 11:13 | 47.55596 | -32.71857 | 34869 ft | 447 kts | 72° |
| 2026-04-22 11:13 | 47.57160 | -32.62970 | 34879 ft | 446 kts | 72° |
| 2026-04-22 11:14 | 47.58716 | -32.54090 | 34874 ft | 445 kts | 72° |
| 2026-04-22 11:14 | 47.60262 | -32.45218 | 34860 ft | 445 kts | 72° |
| 2026-04-22 11:15 | 47.61791 | -32.36404 | 34853 ft | 444 kts | 73° |
| 2026-04-22 11:15 | 47.63323 | -32.27525 | 34845 ft | 445 kts | 73° |
| 2026-04-22 11:16 | 47.64847 | -32.18648 | 34849 ft | 444 kts | 72° |
| 2026-04-22 11:16 | 47.66364 | -32.09770 | 34831 ft | 444 kts | 73° |
| 2026-04-22 11:17 | 47.67872 | -32.00898 | 34835 ft | 443 kts | 73° |
| 2026-04-22 11:17 | 47.69372 | -31.92026 | 34825 ft | 443 kts | 73° |
| 2026-04-22 11:18 | 47.70864 | -31.83152 | 34831 ft | 443 kts | 73° |
| 2026-04-22 11:18 | 47.72349 | -31.74286 | 34821 ft | 442 kts | 73° |
| 2026-04-22 11:19 | 47.73823 | -31.65430 | 34809 ft | 441 kts | 73° |
| 2026-04-22 11:19 | 47.75286 | -31.56597 | 34791 ft | 440 kts | 73° |
| 2026-04-22 11:20 | 47.76494 | -31.49270 | 34786 ft | 439 kts | 73° |
| 2026-04-22 11:20 | 47.77947 | -31.40411 | 34787 ft | 438 kts | 73° |
| 2026-04-22 11:21 | 47.79375 | -31.31666 | 34784 ft | 438 kts | 73° |
| 2026-04-22 11:21 | 47.80805 | -31.22856 | 34783 ft | 439 kts | 73° |
| 2026-04-22 11:22 | 47.82232 | -31.14027 | 34794 ft | 439 kts | 74° |
| 2026-04-22 11:22 | 47.83653 | -31.05181 | 34794 ft | 440 kts | 74° |
| 2026-04-22 11:23 | 47.85072 | -30.96303 | 34763 ft | 441 kts | 74° |
| 2026-04-22 11:23 | 47.86479 | -30.87447 | 34762 ft | 439 kts | 74° |
| 2026-04-22 11:24 | 47.87875 | -30.78619 | 34758 ft | 437 kts | 74° |
| 2026-04-22 11:24 | 47.89257 | -30.69826 | 34766 ft | 436 kts | 74° |
| 2026-04-22 11:25 | 47.90634 | -30.61030 | 34775 ft | 436 kts | 74° |
| 2026-04-22 11:25 | 47.92005 | -30.52224 | 34748 ft | 436 kts | 74° |
| 2026-04-22 11:26 | 47.93369 | -30.43412 | 34750 ft | 436 kts | 74° |
| 2026-04-22 11:26 | 47.94726 | -30.34601 | 34743 ft | 436 kts | 74° |
| 2026-04-22 11:27 | 47.96076 | -30.25791 | 34728 ft | 436 kts | 74° |
| 2026-04-22 11:27 | 47.97422 | -30.16972 | 34735 ft | 436 kts | 74° |
| 2026-04-22 11:28 | 47.98763 | -30.08153 | 34730 ft | 436 kts | 74° |
| 2026-04-22 11:28 | 48.00115 | -29.99330 | 34716 ft | 435 kts | 72° |
| 2026-04-22 11:29 | 48.01800 | -29.90672 | 34750 ft | 435 kts | 70° |
| 2026-04-22 11:29 | 48.03518 | -29.81998 | 34704 ft | 435 kts | 70° |
| 2026-04-22 11:30 | 48.05224 | -29.73344 | 34722 ft | 433 kts | 70° |
| 2026-04-22 11:30 | 48.06912 | -29.64727 | 34702 ft | 431 kts | 70° |
| 2026-04-22 11:31 | 48.08584 | -29.56145 | 34706 ft | 429 kts | 70° |
| 2026-04-22 11:31 | 48.10244 | -29.47584 | 34695 ft | 428 kts | 70° |
| 2026-04-22 11:32 | 48.11896 | -29.39026 | 34697 ft | 428 kts | 70° |
| 2026-04-22 11:32 | 48.13542 | -29.30466 | 34692 ft | 428 kts | 70° |
| 2026-04-22 11:33 | 48.15182 | -29.21898 | 34681 ft | 428 kts | 70° |
| 2026-04-22 11:33 | 48.16815 | -29.13322 | 34682 ft | 428 kts | 70° |
| 2026-04-22 11:34 | 48.18433 | -29.04787 | 34678 ft | 429 kts | 70° |
| 2026-04-22 11:34 | 48.20062 | -28.96162 | 34678 ft | 431 kts | 70° |
| 2026-04-22 11:35 | 48.21682 | -28.87535 | 34667 ft | 429 kts | 70° |
| 2026-04-22 11:35 | 48.23284 | -28.78962 | 34663 ft | 425 kts | 70° |
| 2026-04-22 11:36 | 48.24870 | -28.70435 | 34659 ft | 423 kts | 70° |
| 2026-04-22 11:36 | 48.26445 | -28.61940 | 34665 ft | 422 kts | 71° |
| 2026-04-22 11:37 | 48.28014 | -28.53441 | 34672 ft | 423 kts | 71° |
| 2026-04-22 11:37 | 48.29579 | -28.44917 | 34659 ft | 424 kts | 71° |
| 2026-04-22 11:38 | 48.31140 | -28.36376 | 34655 ft | 424 kts | 71° |
| 2026-04-22 11:38 | 48.33471 | -28.23543 | 34653 ft | 425 kts | 71° |
| 2026-04-22 11:39 | 48.35019 | -28.14972 | 34651 ft | 425 kts | 71° |
| 2026-04-22 11:39 | 48.36563 | -28.06384 | 34630 ft | 426 kts | 71° |
| 2026-04-22 11:40 | 48.38100 | -27.97791 | 34624 ft | 426 kts | 71° |
| 2026-04-22 11:40 | 48.39633 | -27.89181 | 34626 ft | 426 kts | 71° |
| 2026-04-22 11:41 | 48.41158 | -27.80572 | 34636 ft | 426 kts | 71° |
| 2026-04-22 11:41 | 48.42677 | -27.71959 | 34637 ft | 426 kts | 72° |
| 2026-04-22 11:42 | 48.44192 | -27.63327 | 34628 ft | 426 kts | 72° |
| 2026-04-22 11:42 | 48.45701 | -27.54687 | 34624 ft | 427 kts | 72° |
| 2026-04-22 11:43 | 48.47203 | -27.46044 | 34625 ft | 427 kts | 72° |
| 2026-04-22 11:43 | 48.48688 | -27.37454 | 34619 ft | 427 kts | 72° |
| 2026-04-22 11:44 | 48.50178 | -27.28797 | 34616 ft | 427 kts | 72° |
| 2026-04-22 11:44 | 48.51661 | -27.20137 | 34622 ft | 426 kts | 72° |
| 2026-04-22 11:45 | 48.53138 | -27.11468 | 34616 ft | 427 kts | 72° |
| 2026-04-22 11:45 | 48.54611 | -27.02778 | 34616 ft | 429 kts | 73° |
| 2026-04-22 11:46 | 48.56090 | -26.94022 | 34621 ft | 432 kts | 73° |
| 2026-04-22 11:46 | 48.57574 | -26.85182 | 34613 ft | 436 kts | 74° |
| 2026-04-22 11:47 | 48.59061 | -26.76271 | 34607 ft | 439 kts | 74° |
| 2026-04-22 11:47 | 48.60548 | -26.67321 | 34604 ft | 440 kts | 74° |
| 2026-04-22 11:48 | 48.62030 | -26.58348 | 34591 ft | 440 kts | 74° |
| 2026-04-22 11:48 | 48.63504 | -26.49374 | 34603 ft | 440 kts | 75° |
| 2026-04-22 11:49 | 48.64970 | -26.40406 | 34597 ft | 439 kts | 75° |
| 2026-04-22 11:49 | 48.66427 | -26.31445 | 34596 ft | 439 kts | 75° |
| 2026-04-22 11:50 | 48.67875 | -26.22489 | 34593 ft | 438 kts | 75° |
| 2026-04-22 11:50 | 48.69316 | -26.13533 | 34590 ft | 438 kts | 75° |
| 2026-04-22 11:51 | 48.70748 | -26.04587 | 34598 ft | 437 kts | 76° |
| 2026-04-22 11:51 | 48.72172 | -25.95636 | 34594 ft | 437 kts | 76° |
| 2026-04-22 11:52 | 48.73586 | -25.86698 | 34572 ft | 436 kts | 76° |
| 2026-04-22 11:52 | 48.74993 | -25.77760 | 34573 ft | 436 kts | 76° |
| 2026-04-22 11:53 | 48.76393 | -25.68820 | 34570 ft | 436 kts | 76° |
| 2026-04-22 11:53 | 48.77784 | -25.59886 | 34569 ft | 435 kts | 76° |
| 2026-04-22 11:54 | 48.79165 | -25.50962 | 34577 ft | 434 kts | 76° |
| 2026-04-22 11:54 | 48.80537 | -25.42054 | 34574 ft | 434 kts | 76° |
| 2026-04-22 11:55 | 48.81891 | -25.33206 | 34569 ft | 433 kts | 76° |
| 2026-04-22 11:55 | 48.83247 | -25.24302 | 34575 ft | 433 kts | 77° |
| 2026-04-22 11:56 | 48.84597 | -25.15391 | 34571 ft | 433 kts | 77° |
| 2026-04-22 11:56 | 48.85939 | -25.06473 | 34570 ft | 433 kts | 77° |
| 2026-04-22 11:57 | 48.87276 | -24.97546 | 34570 ft | 434 kts | 77° |
| 2026-04-22 11:57 | 48.88607 | -24.88606 | 34572 ft | 434 kts | 77° |
| 2026-04-22 11:58 | 48.89931 | -24.79658 | 34567 ft | 435 kts | 77° |
| 2026-04-22 11:58 | 48.91251 | -24.70687 | 34562 ft | 435 kts | 77° |
| 2026-04-22 11:59 | 48.92568 | -24.61686 | 34561 ft | 436 kts | 77° |
| 2026-04-22 11:59 | 48.93880 | -24.52670 | 34560 ft | 437 kts | 77° |
| 2026-04-22 12:00 | 48.95186 | -24.43635 | 34560 ft | 437 kts | 77° |
| 2026-04-22 12:00 | 48.96486 | -24.34589 | 34557 ft | 438 kts | 78° |
| 2026-04-22 12:01 | 48.97781 | -24.25529 | 34558 ft | 438 kts | 78° |
| 2026-04-22 12:01 | 48.99069 | -24.16455 | 34581 ft | 439 kts | 78° |
| 2026-04-22 12:02 | 49.00356 | -24.07340 | 34564 ft | 441 kts | 78° |
| 2026-04-22 12:02 | 49.01640 | -23.98186 | 34554 ft | 443 kts | 78° |
| 2026-04-22 12:03 | 49.02921 | -23.89000 | 34555 ft | 444 kts | 78° |
| 2026-04-22 12:03 | 49.04197 | -23.79789 | 34555 ft | 445 kts | 79° |
| 2026-04-22 12:04 | 49.05253 | -23.72124 | 34556 ft | 445 kts | 79° |
| 2026-04-22 12:04 | 49.06519 | -23.62887 | 34556 ft | 445 kts | 79° |
| 2026-04-22 12:05 | 49.07777 | -23.53646 | 34542 ft | 445 kts | 79° |
| 2026-04-22 12:05 | 49.09229 | -23.42899 | 34549 ft | 445 kts | 79° |
| 2026-04-22 12:06 | 49.10272 | -23.35139 | 34549 ft | 446 kts | 79° |
| 2026-04-22 12:06 | 49.11509 | -23.25873 | 34546 ft | 446 kts | 79° |
| 2026-04-22 12:07 | 49.12740 | -23.16589 | 34546 ft | 446 kts | 79° |
| 2026-04-22 12:07 | 49.13963 | -23.07306 | 34546 ft | 446 kts | 79° |
| 2026-04-22 12:08 | 49.15180 | -22.98012 | 34547 ft | 446 kts | 79° |
| 2026-04-22 12:08 | 49.16389 | -22.88717 | 34546 ft | 446 kts | 79° |
| 2026-04-22 12:09 | 49.17590 | -22.79418 | 34546 ft | 446 kts | 79° |
| 2026-04-22 12:09 | 49.18784 | -22.70119 | 34537 ft | 446 kts | 80° |
| 2026-04-22 12:10 | 49.19970 | -22.60808 | 34545 ft | 446 kts | 80° |
| 2026-04-22 12:10 | 49.21141 | -22.51560 | 34546 ft | 446 kts | 80° |
| 2026-04-22 12:11 | 49.22313 | -22.42236 | 34545 ft | 446 kts | 80° |
| 2026-04-22 12:11 | 49.23479 | -22.32901 | 34544 ft | 447 kts | 80° |
| 2026-04-22 12:12 | 49.24637 | -22.23559 | 34538 ft | 447 kts | 81° |
| 2026-04-22 12:12 | 49.25789 | -22.14206 | 34545 ft | 447 kts | 81° |
| 2026-04-22 12:13 | 49.26934 | -22.04840 | 34546 ft | 448 kts | 81° |
| 2026-04-22 12:13 | 49.28073 | -21.95463 | 34547 ft | 448 kts | 81° |
| 2026-04-22 12:14 | 49.29204 | -21.86080 | 34544 ft | 448 kts | 81° |
| 2026-04-22 12:14 | 49.30328 | -21.76689 | 34542 ft | 448 kts | 81° |
| 2026-04-22 12:15 | 49.31444 | -21.67290 | 34549 ft | 448 kts | 81° |
| 2026-04-22 12:15 | 49.32554 | -21.57882 | 34547 ft | 449 kts | 81° |
| 2026-04-22 12:16 | 49.33657 | -21.48469 | 34553 ft | 449 kts | 81° |
| 2026-04-22 12:16 | 49.34752 | -21.39043 | 34534 ft | 449 kts | 81° |
| 2026-04-22 12:17 | 49.35840 | -21.29617 | 34561 ft | 449 kts | 82° |
| 2026-04-22 12:17 | 49.36919 | -21.20190 | 34560 ft | 449 kts | 82° |
| 2026-04-22 12:18 | 49.37992 | -21.10748 | 34546 ft | 450 kts | 82° |
| 2026-04-22 12:18 | 49.39062 | -21.01258 | 34548 ft | 453 kts | 82° |
| 2026-04-22 12:19 | 49.40132 | -20.91700 | 34547 ft | 456 kts | 82° |
| 2026-04-22 12:19 | 49.41202 | -20.82068 | 34551 ft | 459 kts | 82° |
| 2026-04-22 12:20 | 49.42270 | -20.72381 | 34551 ft | 461 kts | 82° |
| 2026-04-22 12:20 | 49.43332 | -20.62672 | 34549 ft | 461 kts | 82° |
| 2026-04-22 12:21 | 49.44386 | -20.52957 | 34551 ft | 460 kts | 82° |
| 2026-04-22 12:21 | 49.45429 | -20.43261 | 34558 ft | 459 kts | 83° |
| 2026-04-22 12:22 | 49.46463 | -20.33582 | 34555 ft | 459 kts | 83° |
| 2026-04-22 12:22 | 49.47488 | -20.23912 | 34557 ft | 458 kts | 83° |
| 2026-04-22 12:23 | 49.48498 | -20.14315 | 34555 ft | 457 kts | 83° |
| 2026-04-22 12:23 | 49.49509 | -20.04662 | 34553 ft | 457 kts | 83° |
| 2026-04-22 12:24 | 49.50568 | -19.95001 | 34559 ft | 458 kts | 82° |
| 2026-04-22 12:24 | 49.51753 | -19.85347 | 34565 ft | 460 kts | 81° |
| 2026-04-22 12:25 | 49.52948 | -19.75671 | 34561 ft | 461 kts | 82° |
| 2026-04-22 12:25 | 49.54123 | -19.65971 | 34565 ft | 461 kts | 82° |
| 2026-04-22 12:26 | 49.55281 | -19.56262 | 34553 ft | 461 kts | 82° |
| 2026-04-22 12:26 | 49.56429 | -19.46548 | 34566 ft | 461 kts | 82° |
| 2026-04-22 12:27 | 49.57569 | -19.36826 | 34570 ft | 461 kts | 82° |
| 2026-04-22 12:27 | 49.58702 | -19.27097 | 34570 ft | 461 kts | 82° |
| 2026-04-22 12:28 | 49.59827 | -19.17365 | 34564 ft | 461 kts | 83° |
| 2026-04-22 12:28 | 49.60944 | -19.07620 | 34577 ft | 462 kts | 83° |
| 2026-04-22 12:29 | 49.62054 | -18.97864 | 34585 ft | 462 kts | 83° |
| 2026-04-22 12:29 | 49.63157 | -18.88089 | 34584 ft | 463 kts | 83° |
| 2026-04-22 12:30 | 49.64799 | -18.73404 | 34588 ft | 463 kts | 83° |
| 2026-04-22 12:31 | 49.65883 | -18.63609 | 34595 ft | 463 kts | 83° |
| 2026-04-22 12:31 | 49.66959 | -18.53810 | 34594 ft | 463 kts | 83° |
| 2026-04-22 12:32 | 49.68026 | -18.44010 | 34596 ft | 463 kts | 83° |
| 2026-04-22 12:32 | 49.69611 | -18.29307 | 34582 ft | 462 kts | 84° |
| 2026-04-22 12:33 | 49.70655 | -18.19510 | 34593 ft | 462 kts | 84° |
| 2026-04-22 12:33 | 49.71692 | -18.09705 | 34602 ft | 463 kts | 84° |
| 2026-04-22 12:34 | 49.72721 | -17.99888 | 34598 ft | 463 kts | 84° |
| 2026-04-22 12:34 | 49.73744 | -17.90053 | 34606 ft | 463 kts | 84° |
| 2026-04-22 12:35 | 49.74758 | -17.80217 | 34593 ft | 463 kts | 84° |
| 2026-04-22 12:35 | 49.75764 | -17.70375 | 34620 ft | 464 kts | 84° |
| 2026-04-22 12:36 | 49.76762 | -17.60522 | 34628 ft | 464 kts | 84° |
| 2026-04-22 12:36 | 49.77752 | -17.50662 | 34619 ft | 464 kts | 85° |
| 2026-04-22 12:37 | 49.78728 | -17.40860 | 34618 ft | 464 kts | 85° |
| 2026-04-22 12:37 | 49.79703 | -17.30986 | 34645 ft | 464 kts | 85° |
| 2026-04-22 12:38 | 49.80669 | -17.21092 | 34639 ft | 465 kts | 85° |
| 2026-04-22 12:38 | 49.81628 | -17.11198 | 34645 ft | 464 kts | 85° |
| 2026-04-22 12:39 | 49.83047 | -16.96376 | 34631 ft | 463 kts | 86° |
| 2026-04-22 12:40 | 49.83982 | -16.86509 | 34663 ft | 463 kts | 86° |
| 2026-04-22 12:40 | 49.84907 | -16.76632 | 34656 ft | 463 kts | 86° |
| 2026-04-22 12:41 | 49.85825 | -16.66751 | 34672 ft | 463 kts | 86° |
| 2026-04-22 12:41 | 49.86735 | -16.56857 | 34680 ft | 464 kts | 86° |
| 2026-04-22 12:42 | 49.87637 | -16.46960 | 34671 ft | 464 kts | 86° |
| 2026-04-22 12:42 | 49.88531 | -16.37049 | 34678 ft | 464 kts | 86° |
| 2026-04-22 12:43 | 49.89418 | -16.27127 | 34689 ft | 465 kts | 86° |
| 2026-04-22 12:43 | 49.90297 | -16.17186 | 34701 ft | 465 kts | 86° |
| 2026-04-22 12:44 | 49.91168 | -16.07242 | 34676 ft | 465 kts | 86° |
| 2026-04-22 12:44 | 49.92030 | -15.97296 | 34706 ft | 465 kts | 86° |
| 2026-04-22 12:45 | 49.92884 | -15.87344 | 34715 ft | 466 kts | 86° |
| 2026-04-22 12:45 | 49.93725 | -15.77436 | 34719 ft | 466 kts | 86° |
| 2026-04-22 12:46 | 49.94563 | -15.67464 | 34719 ft | 466 kts | 87° |
| 2026-04-22 12:46 | 49.95392 | -15.57496 | 34726 ft | 466 kts | 87° |
| 2026-04-22 12:47 | 49.96212 | -15.47515 | 34732 ft | 466 kts | 87° |
| 2026-04-22 12:47 | 49.97025 | -15.37522 | 34746 ft | 467 kts | 87° |
| 2026-04-22 12:48 | 49.97831 | -15.27515 | 34769 ft | 467 kts | 87° |
| 2026-04-22 12:48 | 49.98629 | -15.17482 | 34722 ft | 468 kts | 87° |
| 2026-04-22 12:49 | 49.99421 | -15.07443 | 34766 ft | 468 kts | 88° |
| 2026-04-22 12:49 | 50.00071 | -14.97385 | 34771 ft | 466 kts | 93° |
| 2026-04-22 12:50 | 50.00098 | -14.87324 | 34769 ft | 466 kts | 94° |
| 2026-04-22 12:50 | 50.00085 | -14.78886 | 34778 ft | 466 kts | 94° |
| 2026-04-22 12:51 | 50.00088 | -14.68864 | 34762 ft | 466 kts | 94° |
| 2026-04-22 12:51 | 50.00100 | -14.58805 | 34776 ft | 465 kts | 94° |
| 2026-04-22 12:52 | 50.00105 | -14.48767 | 34794 ft | 464 kts | 94° |
| 2026-04-22 12:52 | 50.00100 | -14.38735 | 34795 ft | 464 kts | 94° |
| 2026-04-22 12:53 | 50.00086 | -14.28707 | 34806 ft | 464 kts | 94° |
| 2026-04-22 12:53 | 50.00065 | -14.18671 | 34795 ft | 466 kts | 95° |
| 2026-04-22 12:54 | 50.00035 | -14.08575 | 34818 ft | 469 kts | 94° |
| 2026-04-22 12:54 | 50.00840 | -13.98406 | 34821 ft | 481 kts | 81° |
| 2026-04-22 12:55 | 50.03066 | -13.88494 | 34820 ft | 490 kts | 71° |
| 2026-04-22 12:55 | 50.05838 | -13.78786 | 34798 ft | 491 kts | 71° |
| 2026-04-22 12:56 | 50.08609 | -13.69107 | 34813 ft | 488 kts | 71° |
| 2026-04-22 12:56 | 50.11315 | -13.59465 | 34821 ft | 484 kts | 71° |
| 2026-04-22 12:57 | 50.13970 | -13.49862 | 34825 ft | 481 kts | 71° |
| 2026-04-22 12:57 | 50.16598 | -13.40291 | 34841 ft | 480 kts | 72° |
| 2026-04-22 12:58 | 50.19219 | -13.30717 | 34847 ft | 480 kts | 72° |
| 2026-04-22 12:58 | 50.21840 | -13.21102 | 34858 ft | 483 kts | 72° |
| 2026-04-22 12:59 | 50.24468 | -13.11429 | 34866 ft | 485 kts | 72° |
| 2026-04-22 12:59 | 50.27101 | -13.01703 | 34868 ft | 487 kts | 72° |
| 2026-04-22 13:00 | 50.29732 | -12.91941 | 34872 ft | 487 kts | 72° |
| 2026-04-22 13:00 | 50.32359 | -12.82153 | 34880 ft | 489 kts | 72° |
| 2026-04-22 13:01 | 50.34984 | -12.72330 | 34889 ft | 490 kts | 72° |
| 2026-04-22 13:01 | 50.37605 | -12.62482 | 34898 ft | 490 kts | 72° |
| 2026-04-22 13:02 | 50.40215 | -12.52633 | 34867 ft | 489 kts | 72° |
| 2026-04-22 13:02 | 50.42810 | -12.42801 | 34906 ft | 488 kts | 72° |
| 2026-04-22 13:03 | 50.45395 | -12.32959 | 34912 ft | 488 kts | 72° |
| 2026-04-22 13:03 | 50.47970 | -12.23113 | 34923 ft | 488 kts | 72° |
| 2026-04-22 13:04 | 50.50537 | -12.13256 | 34891 ft | 488 kts | 72° |
| 2026-04-22 13:04 | 50.53094 | -12.03397 | 34935 ft | 488 kts | 73° |
| 2026-04-22 13:05 | 50.55648 | -11.93501 | 34944 ft | 489 kts | 73° |
| 2026-04-22 13:05 | 50.58197 | -11.83583 | 34946 ft | 489 kts | 73° |
| 2026-04-22 13:06 | 50.60740 | -11.73648 | 34959 ft | 490 kts | 73° |
| 2026-04-22 13:06 | 50.63278 | -11.63690 | 34947 ft | 490 kts | 73° |
| 2026-04-22 13:07 | 50.65794 | -11.53767 | 34965 ft | 492 kts | 73° |
| 2026-04-22 13:07 | 50.68347 | -11.43657 | 34974 ft | 494 kts | 73° |
| 2026-04-22 13:08 | 50.70865 | -11.33643 | 34979 ft | 495 kts | 73° |
| 2026-04-22 13:08 | 50.73396 | -11.23531 | 34958 ft | 495 kts | 73° |
| 2026-04-22 13:09 | 50.75919 | -11.13409 | 34972 ft | 495 kts | 73° |
| 2026-04-22 13:09 | 50.78432 | -11.03275 | 35002 ft | 496 kts | 73° |
| 2026-04-22 13:10 | 50.80937 | -10.93129 | 35014 ft | 495 kts | 74° |
| 2026-04-22 13:10 | 50.83433 | -10.82972 | 34975 ft | 495 kts | 74° |
| 2026-04-22 13:11 | 50.85909 | -10.72859 | 35012 ft | 491 kts | 74° |
| 2026-04-22 13:11 | 50.88358 | -10.62807 | 35019 ft | 488 kts | 74° |
| 2026-04-22 13:12 | 50.90786 | -10.52790 | 35038 ft | 486 kts | 74° |
| 2026-04-22 13:12 | 50.93197 | -10.42791 | 35041 ft | 485 kts | 74° |
| 2026-04-22 13:13 | 50.95597 | -10.32795 | 35048 ft | 485 kts | 74° |
| 2026-04-22 13:13 | 50.97990 | -10.22781 | 35063 ft | 486 kts | 74° |
| 2026-04-22 13:14 | 51.00384 | -10.12721 | 35069 ft | 488 kts | 74° |
| 2026-04-22 13:14 | 51.02775 | -10.02624 | 35080 ft | 489 kts | 74° |
| 2026-04-22 13:15 | 51.05162 | -9.92501 | 35077 ft | 490 kts | 74° |
| 2026-04-22 13:15 | 51.07544 | -9.82354 | 35087 ft | 490 kts | 75° |
| 2026-04-22 13:16 | 51.09917 | -9.72197 | 35090 ft | 490 kts | 75° |
| 2026-04-22 13:16 | 51.12279 | -9.62036 | 35089 ft | 489 kts | 75° |
| 2026-04-22 13:17 | 51.14631 | -9.51870 | 35071 ft | 489 kts | 75° |
| 2026-04-22 13:17 | 51.16970 | -9.41711 | 35096 ft | 488 kts | 75° |
| 2026-04-22 13:18 | 51.19300 | -9.31543 | 35111 ft | 488 kts | 75° |
| 2026-04-22 13:18 | 51.21621 | -9.21361 | 35121 ft | 488 kts | 75° |
| 2026-04-22 13:19 | 51.23931 | -9.11184 | 35123 ft | 488 kts | 75° |
| 2026-04-22 13:19 | 51.26229 | -9.01012 | 35125 ft | 487 kts | 75° |
| 2026-04-22 13:20 | 51.28517 | -8.90829 | 35129 ft | 487 kts | 75° |
| 2026-04-22 13:20 | 51.30798 | -8.80632 | 35130 ft | 488 kts | 75° |
| 2026-04-22 13:21 | 51.33072 | -8.70414 | 35131 ft | 488 kts | 75° |
| 2026-04-22 13:21 | 51.35324 | -8.60246 | 35104 ft | 488 kts | 75° |
| 2026-04-22 13:22 | 51.37586 | -8.49979 | 35129 ft | 490 kts | 75° |
| 2026-04-22 13:22 | 51.39848 | -8.39665 | 35149 ft | 492 kts | 75° |
| 2026-04-22 13:23 | 51.42108 | -8.29309 | 35146 ft | 493 kts | 75° |
| 2026-04-22 13:23 | 51.44363 | -8.18924 | 35155 ft | 494 kts | 75° |
| 2026-04-22 13:24 | 51.46610 | -8.08521 | 35146 ft | 494 kts | 75° |
| 2026-04-22 13:24 | 51.48850 | -7.98102 | 35171 ft | 494 kts | 75° |
| 2026-04-22 13:25 | 51.51084 | -7.87659 | 35184 ft | 495 kts | 75° |
| 2026-04-22 13:25 | 51.53309 | -7.77201 | 35186 ft | 495 kts | 75° |
| 2026-04-22 13:26 | 51.55524 | -7.66731 | 35183 ft | 495 kts | 74° |
| 2026-04-22 13:26 | 51.57731 | -7.56248 | 35206 ft | 496 kts | 74° |
| 2026-04-22 13:27 | 51.59932 | -7.45739 | 35215 ft | 496 kts | 75° |
| 2026-04-22 13:27 | 51.62125 | -7.35213 | 35215 ft | 496 kts | 75° |
| 2026-04-22 13:28 | 51.64309 | -7.24675 | 35206 ft | 496 kts | 74° |
| 2026-04-22 13:28 | 51.66483 | -7.14128 | 35224 ft | 496 kts | 74° |
| 2026-04-22 13:29 | 51.68650 | -7.03564 | 35230 ft | 497 kts | 74° |
| 2026-04-22 13:29 | 51.70810 | -6.92974 | 35241 ft | 498 kts | 74° |
| 2026-04-22 13:30 | 51.72962 | -6.82366 | 35239 ft | 498 kts | 75° |
| 2026-04-22 13:30 | 51.75107 | -6.71737 | 35246 ft | 498 kts | 74° |
| 2026-04-22 13:31 | 51.77103 | -6.61036 | 35235 ft | 497 kts | 81° |
| 2026-04-22 13:31 | 51.77616 | -6.50014 | 35256 ft | 491 kts | 95° |
| 2026-04-22 13:32 | 51.76746 | -6.39142 | 35265 ft | 488 kts | 102° |
| 2026-04-22 13:32 | 51.75676 | -6.28319 | 35240 ft | 489 kts | 102° |
| 2026-04-22 13:33 | 51.74628 | -6.17454 | 35260 ft | 490 kts | 101° |
| 2026-04-22 13:33 | 51.73773 | -6.08403 | 35256 ft | 492 kts | 101° |
| 2026-04-22 13:34 | 51.72578 | -5.95719 | 35256 ft | 493 kts | 101° |
| 2026-04-22 13:34 | 51.71535 | -5.84790 | 35257 ft | 493 kts | 101° |
| 2026-04-22 13:35 | 51.70481 | -5.73868 | 35248 ft | 493 kts | 101° |
| 2026-04-22 13:35 | 51.69589 | -5.64715 | 35258 ft | 494 kts | 101° |
| 2026-04-22 13:36 | 51.68520 | -5.53855 | 35263 ft | 494 kts | 101° |
| 2026-04-22 13:36 | 51.67435 | -5.42925 | 35250 ft | 495 kts | 101° |
| 2026-04-22 13:37 | 51.66337 | -5.31987 | 35252 ft | 495 kts | 102° |
| 2026-04-22 13:37 | 51.65041 | -5.19199 | 35256 ft | 495 kts | 102° |
| 2026-04-22 13:38 | 51.64111 | -5.10115 | 35262 ft | 495 kts | 102° |
| 2026-04-22 13:38 | 51.62415 | -4.93725 | 35258 ft | 495 kts | 102° |
| 2026-04-22 13:39 | 51.61271 | -4.82804 | 35250 ft | 495 kts | 102° |
| 2026-04-22 13:39 | 51.60117 | -4.71889 | 35246 ft | 495 kts | 102° |
| 2026-04-22 13:40 | 51.58953 | -4.60973 | 35260 ft | 496 kts | 102° |
| 2026-04-22 13:40 | 51.57776 | -4.50040 | 35255 ft | 496 kts | 102° |
| 2026-04-22 13:41 | 51.56589 | -4.39108 | 35257 ft | 497 kts | 102° |
| 2026-04-22 13:41 | 51.55391 | -4.28171 | 35253 ft | 497 kts | 102° |
| 2026-04-22 13:42 | 51.54181 | -4.17217 | 35256 ft | 499 kts | 102° |
| 2026-04-22 13:42 | 51.52960 | -4.06246 | 35254 ft | 499 kts | 102° |
| 2026-04-22 13:43 | 51.51732 | -3.95263 | 35246 ft | 500 kts | 102° |
| 2026-04-22 13:43 | 51.50490 | -3.84288 | 35241 ft | 500 kts | 102° |
| 2026-04-22 13:44 | 51.49202 | -3.73318 | 35259 ft | 501 kts | 102° |
| 2026-04-22 13:44 | 51.47918 | -3.62315 | 35271 ft | 503 kts | 100° |
| 2026-04-22 13:45 | 51.47177 | -3.51141 | 34768 ft | 510 kts | 96° |
| 2026-04-22 13:45 | 51.46870 | -3.45463 | 34171 ft | 509 kts | 96° |
| 2026-04-22 13:45 | 51.46565 | -3.39845 | 33562 ft | 502 kts | 96° |
| 2026-04-22 13:46 | 51.46255 | -3.34307 | 33023 ft | 495 kts | 96° |
| 2026-04-22 13:46 | 51.45942 | -3.28911 | 32492 ft | 490 kts | 96° |
| 2026-04-22 13:46 | 51.45616 | -3.23435 | 31954 ft | 484 kts | 97° |
| 2026-04-22 13:46 | 51.45296 | -3.18170 | 31438 ft | 479 kts | 97° |
| 2026-04-22 13:47 | 51.44971 | -3.12885 | 30921 ft | 474 kts | 97° |
| 2026-04-22 13:47 | 51.44647 | -3.07651 | 30407 ft | 469 kts | 97° |
| 2026-04-22 13:47 | 51.44325 | -3.02470 | 29825 ft | 465 kts | 97° |
| 2026-04-22 13:47 | 51.44003 | -2.97342 | 29275 ft | 460 kts | 97° |
| 2026-04-22 13:48 | 51.43683 | -2.92274 | 28750 ft | 455 kts | 97° |
| 2026-04-22 13:48 | 51.43366 | -2.87266 | 28244 ft | 450 kts | 97° |
| 2026-04-22 13:48 | 51.43048 | -2.82302 | 27740 ft | 446 kts | 96° |
| 2026-04-22 13:48 | 51.42731 | -2.77379 | 27224 ft | 442 kts | 96° |
| 2026-04-22 13:49 | 51.42415 | -2.72494 | 26706 ft | 439 kts | 96° |
| 2026-04-22 13:49 | 51.42100 | -2.67648 | 26207 ft | 436 kts | 96° |
| 2026-04-22 13:49 | 51.41784 | -2.62842 | 25720 ft | 432 kts | 96° |
| 2026-04-22 13:49 | 51.41471 | -2.58083 | 25228 ft | 428 kts | 96° |
| 2026-04-22 13:50 | 51.41158 | -2.53353 | 24746 ft | 425 kts | 96° |
| 2026-04-22 13:50 | 51.40845 | -2.48663 | 24256 ft | 422 kts | 96° |
| 2026-04-22 13:50 | 51.40532 | -2.44012 | 23766 ft | 419 kts | 96° |
| 2026-04-22 13:50 | 51.40219 | -2.39393 | 23212 ft | 415 kts | 96° |
| 2026-04-22 13:51 | 51.39906 | -2.34819 | 22699 ft | 411 kts | 96° |
| 2026-04-22 13:51 | 51.39595 | -2.30290 | 22235 ft | 407 kts | 95° |
| 2026-04-22 13:51 | 51.39287 | -2.25813 | 21764 ft | 403 kts | 96° |
| 2026-04-22 13:51 | 51.38980 | -2.21371 | 21300 ft | 399 kts | 96° |
| 2026-04-22 13:52 | 51.38674 | -2.16973 | 20841 ft | 396 kts | 96° |
| 2026-04-22 13:52 | 51.38369 | -2.12614 | 20388 ft | 392 kts | 96° |
| 2026-04-22 13:52 | 51.38066 | -2.08293 | 19939 ft | 389 kts | 96° |
| 2026-04-22 13:52 | 51.37763 | -2.04000 | 19498 ft | 387 kts | 96° |
| 2026-04-22 13:53 | 51.37461 | -1.99744 | 19042 ft | 384 kts | 96° |
| 2026-04-22 13:53 | 51.37157 | -1.95511 | 18595 ft | 382 kts | 96° |
| 2026-04-22 13:53 | 51.36853 | -1.91301 | 18082 ft | 379 kts | 96° |
| 2026-04-22 13:53 | 51.36551 | -1.87132 | 17616 ft | 376 kts | 96° |
| 2026-04-22 13:54 | 51.36250 | -1.82990 | 17144 ft | 373 kts | 96° |
| 2026-04-22 13:54 | 51.35951 | -1.78891 | 16700 ft | 369 kts | 97° |
| 2026-04-22 13:54 | 51.35654 | -1.74831 | 16263 ft | 366 kts | 97° |
| 2026-04-22 13:54 | 51.35358 | -1.70809 | 15826 ft | 363 kts | 97° |
| 2026-04-22 13:55 | 51.35063 | -1.66824 | 15383 ft | 359 kts | 97° |
| 2026-04-22 13:55 | 51.34771 | -1.62873 | 14957 ft | 356 kts | 98° |
| 2026-04-22 13:55 | 51.34478 | -1.58952 | 14532 ft | 353 kts | 98° |
| 2026-04-22 13:55 | 51.34190 | -1.55122 | 14200 ft | 348 kts | 98° |
| 2026-04-22 13:56 | 51.33908 | -1.51331 | 13934 ft | 339 kts | 99° |
| 2026-04-22 13:56 | 51.33629 | -1.47588 | 13663 ft | 330 kts | 99° |
| 2026-04-22 13:56 | 51.33357 | -1.43971 | 13448 ft | 327 kts | 98° |
| 2026-04-22 13:56 | 51.33087 | -1.40388 | 13188 ft | 322 kts | 99° |
| 2026-04-22 13:57 | 51.32823 | -1.36880 | 12630 ft | 309 kts | 98° |
| 2026-04-22 13:57 | 51.32573 | -1.33569 | 11998 ft | 292 kts | 98° |
| 2026-04-22 13:57 | 51.32332 | -1.30423 | 11390 ft | 278 kts | 99° |
| 2026-04-22 13:57 | 51.32107 | -1.27458 | 10802 ft | 267 kts | 99° |
| 2026-04-22 13:58 | 51.31885 | -1.24575 | 10229 ft | 257 kts | 99° |
| 2026-04-22 13:58 | 51.31686 | -1.21776 | 9592 ft | 251 kts | 94° |
| 2026-04-22 13:58 | 51.32027 | -1.19055 | 8944 ft | 255 kts | 67° |
| 2026-04-22 13:58 | 51.33140 | -1.16823 | 8337 ft | 259 kts | 49° |
| 2026-04-22 13:59 | 51.34488 | -1.14906 | 7768 ft | 259 kts | 46° |
| 2026-04-22 13:59 | 51.35860 | -1.13047 | 7176 ft | 258 kts | 46° |
| 2026-04-22 13:59 | 51.37229 | -1.11209 | 6596 ft | 256 kts | 46° |
| 2026-04-22 13:59 | 51.38594 | -1.09387 | 5980 ft | 254 kts | 46° |
| 2026-04-22 14:00 | 51.39948 | -1.07589 | 5384 ft | 250 kts | 46° |
| 2026-04-22 14:00 | 51.41249 | -1.05877 | 5098 ft | 233 kts | 45° |
| 2026-04-22 14:00 | 51.42451 | -1.04279 | 4807 ft | 215 kts | 51° |
| 2026-04-22 14:00 | 51.43433 | -1.02614 | 4542 ft | 197 kts | 55° |
| 2026-04-22 14:01 | 51.44328 | -1.00974 | 4332 ft | 194 kts | 55° |
| 2026-04-22 14:01 | 51.45204 | -0.99339 | 4082 ft | 191 kts | 55° |
| 2026-04-22 14:01 | 51.46036 | -0.97780 | 4026 ft | 178 kts | 55° |
| 2026-04-22 14:01 | 51.46822 | -0.96289 | 3989 ft | 173 kts | 60° |
| 2026-04-22 14:02 | 51.47204 | -0.94550 | 3989 ft | 164 kts | 87° |
| 2026-04-22 14:02 | 51.47334 | -0.92700 | 4008 ft | 169 kts | 84° |
| 2026-04-22 14:02 | 51.47468 | -0.90865 | 3995 ft | 164 kts | 86° |
| 2026-04-22 14:02 | 51.47542 | -0.89052 | 3992 ft | 162 kts | 88° |
| 2026-04-22 14:03 | 51.47581 | -0.87252 | 3974 ft | 161 kts | 89° |
| 2026-04-22 14:03 | 51.47604 | -0.85459 | 3973 ft | 160 kts | 89° |
| 2026-04-22 14:03 | 51.47617 | -0.83707 | 3973 ft | 153 kts | 90° |
| 2026-04-22 14:03 | 51.47625 | -0.82068 | 3969 ft | 144 kts | 90° |
| 2026-04-22 14:04 | 51.47634 | -0.80489 | 3990 ft | 141 kts | 90° |
| 2026-04-22 14:04 | 51.47638 | -0.78883 | 3821 ft | 145 kts | 90° |
| 2026-04-22 14:04 | 51.47645 | -0.77278 | 3629 ft | 141 kts | 89° |
| 2026-04-22 14:04 | 51.47650 | -0.75730 | 3450 ft | 137 kts | 88° |
| 2026-04-22 14:05 | 51.47655 | -0.74189 | 3260 ft | 138 kts | 88° |
| 2026-04-22 14:05 | 51.47661 | -0.72646 | 3078 ft | 139 kts | 89° |
| 2026-04-22 14:05 | 51.47674 | -0.69545 | 2713 ft | 140 kts | 88° |
| 2026-04-22 14:06 | 51.47678 | -0.68013 | 2508 ft | 134 kts | 88° |
| 2026-04-22 14:06 | 51.47682 | -0.66513 | 2330 ft | 136 kts | 89° |
| 2026-04-22 14:06 | 51.47689 | -0.64980 | 2155 ft | 141 kts | 88° |
| 2026-04-22 14:06 | 51.47694 | -0.63402 | 1939 ft | 140 kts | 89° |
| 2026-04-22 14:07 | 51.47702 | -0.61860 | 1750 ft | 138 kts | 89° |
| 2026-04-22 14:07 | 51.47707 | -0.60321 | 1566 ft | 138 kts | 89° |
| 2026-04-22 14:07 | 51.47711 | -0.58790 | 1387 ft | 136 kts | 88° |
| 2026-04-22 14:07 | 51.47717 | -0.57275 | 1197 ft | 136 kts | 88° |
| 2026-04-22 14:08 | 51.47723 | -0.55739 | 1011 ft | 139 kts | 88° |
| 2026-04-22 14:08 | 51.47727 | -0.54186 | 826 ft | 138 kts | 88° |
| 2026-04-22 14:08 | 51.47733 | -0.52641 | 651 ft | 139 kts | 89° |
| 2026-04-22 14:08 | 51.47745 | -0.51165 | 439 ft | 127 kts | 88° |
| 2026-04-22 14:09 | 51.47754 | -0.49783 | 232 ft | 122 kts | 89° |
| 2026-04-22 14:09 | 51.47756 | -0.48429 | 108 ft | 123 kts | 89° |
| 2026-04-22 14:09 | 51.47757 | -0.47162 | 94 ft | 96 kts | 90° |
| 2026-04-22 14:09 | 51.47761 | -0.46343 | 95 ft | 51 kts | 89° |
| 2026-04-22 14:10 | 51.47760 | -0.45832 | 92 ft | 43 kts | 90° |
| 2026-04-22 14:10 | 51.47764 | -0.45410 | 90 ft | 35 kts | 89° |
| 2026-04-22 14:10 | 51.47727 | -0.45193 | 97 ft | 10 kts | 142° |
| 2026-04-22 14:10 | 51.47654 | -0.45167 | 93 ft | 11 kts | 180° |
| 2026-04-22 14:11 | 51.47574 | -0.45171 | 95 ft | 12 kts | 187° |
| 2026-04-22 14:11 | 51.47513 | -0.45250 | 95 ft | 12 kts | 256° |
| 2026-04-22 14:11 | 51.47508 | -0.45393 | 94 ft | 13 kts | 269° |
| 2026-04-22 14:11 | 51.47507 | -0.45544 | 94 ft | 14 kts | 270° |
| 2026-04-22 14:12 | 51.47510 | -0.45702 | 95 ft | 15 kts | 275° |
| 2026-04-22 14:12 | 51.47517 | -0.45866 | 91 ft | 15 kts | 271° |
| 2026-04-22 14:12 | 51.47517 | -0.46040 | 91 ft | 16 kts | 269° |
| 2026-04-22 14:12 | 51.47516 | -0.46217 | 91 ft | 16 kts | 270° |
| 2026-04-22 14:13 | 51.47516 | -0.46341 | 91 ft | 4 kts | 270° |
| 2026-04-22 14:13 | 51.47502 | -0.46389 | 95 ft | 6 kts | 219° |
| 2026-04-22 14:13 | 51.47461 | -0.46407 | 93 ft | 7 kts | 183° |
| 2026-04-22 14:13 | 51.47436 | -0.46409 | 94 ft | 4 kts | 182° |
| 2026-04-22 14:14 | 51.47421 | -0.46410 | 94 ft | 1 kts | 182° |
| 2026-04-22 14:14 | 51.47419 | -0.46410 | 94 ft | 0 kts | 181° |